createdAt,value
2018-12-16T00:00:18.926Z,18.37
2018-12-16T00:02:49.650Z,19.47
2018-12-16T00:05:20.307Z,20.00
2018-12-16T00:07:49.149Z,18.93
2018-12-16T00:10:17.907Z,18.57
2018-12-16T00:12:46.744Z,20.40
2018-12-16T00:15:15.524Z,21.40
2018-12-16T00:17:44.212Z,21.70
2018-12-16T00:20:12.994Z,17.93
2018-12-16T00:22:41.863Z,22.40
2018-12-16T00:25:10.639Z,21.33
2018-12-16T00:27:39.426Z,23.17
2018-12-16T00:30:08.435Z,19.67
2018-12-16T00:32:37.284Z,18.60
2018-12-16T00:35:06.162Z,22.13
2018-12-16T00:37:35.891Z,20.53
2018-12-16T00:40:04.775Z,20.47
2018-12-16T00:42:33.559Z,20.80
2018-12-16T00:45:02.393Z,20.73
2018-12-16T00:47:31.139Z,23.13
2018-12-16T00:49:59.950Z,18.67
2018-12-16T00:52:28.710Z,21.33
2018-12-16T00:54:57.498Z,30.03
2018-12-16T00:57:26.300Z,18.80
2018-12-16T00:59:55.136Z,18.53
2018-12-16T01:02:29.360Z,21.23
2018-12-16T01:04:58.164Z,20.40
2018-12-16T01:07:26.997Z,20.53
2018-12-16T01:09:55.835Z,21.13
2018-12-16T01:12:24.624Z,23.57
2018-12-16T01:14:53.352Z,25.17
2018-12-16T01:17:22.119Z,21.67
2018-12-16T01:19:50.898Z,25.07
2018-12-16T01:22:19.679Z,20.63
2018-12-16T01:24:48.528Z,21.80
2018-12-16T01:27:17.236Z,21.97
2018-12-16T01:29:47.062Z,22.10
2018-12-16T01:32:15.740Z,24.13
2018-12-16T01:34:44.495Z,20.90
2018-12-16T01:37:13.295Z,24.00
2018-12-16T01:39:42.132Z,22.57
2018-12-16T01:42:10.943Z,22.53
2018-12-16T01:44:39.938Z,24.10
2018-12-16T01:47:08.631Z,22.97
2018-12-16T01:49:37.394Z,22.10
2018-12-16T01:52:06.207Z,23.50
2018-12-16T01:54:34.855Z,23.57
2018-12-16T01:57:03.657Z,24.10
2018-12-16T01:59:32.474Z,22.03
2018-12-16T02:02:02.291Z,23.90
2018-12-16T02:04:31.161Z,24.93
2018-12-16T02:06:59.938Z,26.30
2018-12-16T02:09:28.728Z,24.60
2018-12-16T02:11:57.487Z,25.87
2018-12-16T02:14:26.278Z,26.40
2018-12-16T02:16:55.060Z,23.90
2018-12-16T02:19:23.871Z,24.53
2018-12-16T02:21:52.680Z,24.97
2018-12-16T02:24:21.687Z,27.03
2018-12-16T02:26:50.424Z,23.97
2018-12-16T02:29:19.148Z,27.50
2018-12-16T02:31:47.882Z,26.20
2018-12-16T02:34:16.679Z,24.67
2018-12-16T02:36:45.382Z,27.03
2018-12-16T02:39:14.148Z,25.07
2018-12-16T02:41:43.136Z,27.40
2018-12-16T02:44:11.911Z,25.40
2018-12-16T02:46:40.740Z,23.73
2018-12-16T02:49:10.536Z,28.10
2018-12-16T02:51:39.447Z,27.00
2018-12-16T02:54:08.233Z,27.73
2018-12-16T02:56:37.024Z,24.30
2018-12-16T02:59:05.791Z,28.20
2018-12-16T03:01:34.583Z,26.47
2018-12-16T03:04:03.398Z,31.07
2018-12-16T03:06:32.135Z,27.73
2018-12-16T03:09:00.842Z,28.23
2018-12-16T03:11:31.496Z,29.37
2018-12-16T03:14:00.515Z,27.50
2018-12-16T03:16:29.268Z,31.37
2018-12-16T03:18:58.043Z,28.77
2018-12-16T03:21:26.916Z,26.80
2018-12-16T03:23:55.592Z,29.03
2018-12-16T03:26:24.339Z,28.53
2018-12-16T03:28:53.031Z,28.73
2018-12-16T03:31:21.871Z,32.20
2018-12-16T03:33:50.615Z,28.77
2018-12-16T03:36:19.354Z,28.63
2018-12-16T03:38:48.080Z,31.53
2018-12-16T03:41:16.797Z,29.50
2018-12-16T03:43:45.583Z,32.47
2018-12-16T03:46:14.425Z,33.63
2018-12-16T03:48:43.115Z,30.90
2018-12-16T03:51:11.814Z,33.17
2018-12-16T03:53:40.487Z,33.27
2018-12-16T03:56:09.274Z,32.07
2018-12-16T03:58:48.275Z,31.53
2018-12-16T04:01:17.010Z,32.33
2018-12-16T04:03:45.790Z,32.70
2018-12-16T04:06:14.491Z,31.73
2018-12-16T04:08:43.265Z,33.40
2018-12-16T04:11:11.995Z,28.83
2018-12-16T04:13:40.717Z,35.20
2018-12-16T04:16:11.435Z,32.37
2018-12-16T04:18:40.168Z,34.40
2018-12-16T04:21:08.964Z,36.00
2018-12-16T04:23:37.690Z,32.47
2018-12-16T04:26:06.472Z,32.70
2018-12-16T04:28:35.400Z,34.00
2018-12-16T04:31:04.248Z,29.83
2018-12-16T04:33:33.024Z,33.43
2018-12-16T04:36:01.734Z,32.07
2018-12-16T04:38:30.624Z,33.37
2018-12-16T04:40:59.347Z,34.30
2018-12-16T04:43:29.152Z,30.53
2018-12-16T04:45:57.871Z,29.53
2018-12-16T04:48:26.603Z,32.03
2018-12-16T04:50:55.423Z,28.87
2018-12-16T04:53:24.144Z,29.60
2018-12-16T04:55:52.834Z,31.33
2018-12-16T04:58:21.634Z,31.20
2018-12-16T05:00:50.434Z,32.67
2018-12-16T05:03:19.235Z,28.30
2018-12-16T05:05:47.946Z,33.07
2018-12-16T05:08:16.663Z,29.67
2018-12-16T05:10:45.487Z,29.63
2018-12-16T05:13:14.235Z,31.90
2018-12-16T05:15:42.959Z,32.33
2018-12-16T05:18:11.675Z,29.80
2018-12-16T05:20:40.518Z,30.23
2018-12-16T05:23:10.271Z,30.77
2018-12-16T05:25:40.062Z,31.33
2018-12-16T05:28:08.794Z,30.80
2018-12-16T05:30:37.596Z,34.03
2018-12-16T05:33:06.331Z,38.33
2018-12-16T05:35:35.122Z,31.67
2018-12-16T05:38:03.937Z,32.50
2018-12-16T05:40:32.632Z,35.00
2018-12-16T05:43:01.327Z,34.43
2018-12-16T05:45:30.122Z,33.03
2018-12-16T05:47:59.112Z,35.53
2018-12-16T05:50:27.887Z,32.23
2018-12-16T05:52:56.567Z,31.67
2018-12-16T05:55:25.334Z,34.33
2018-12-16T05:57:54.115Z,33.00
2018-12-16T06:00:22.894Z,30.87
2018-12-16T06:02:51.641Z,33.10
2018-12-16T06:05:20.427Z,34.07
2018-12-16T06:07:49.191Z,29.03
2018-12-16T06:10:18.006Z,31.87
2018-12-16T06:12:46.794Z,26.77
2018-12-16T06:15:15.572Z,31.80
2018-12-16T06:17:44.363Z,36.37
2018-12-16T06:20:13.170Z,31.70
2018-12-16T06:22:41.907Z,31.03
2018-12-16T06:25:10.687Z,30.10
2018-12-16T06:27:39.367Z,34.20
2018-12-16T06:30:08.607Z,29.33
2018-12-16T06:32:37.328Z,31.67
2018-12-16T06:35:06.170Z,33.70
2018-12-16T06:37:34.843Z,35.03
2018-12-16T06:40:03.866Z,34.67
2018-12-16T06:42:32.646Z,33.60
2018-12-16T06:45:01.367Z,33.63
2018-12-16T06:47:31.284Z,33.90
2018-12-16T06:49:59.931Z,33.10
2018-12-16T06:52:28.719Z,35.20
2018-12-16T06:54:57.439Z,30.87
2018-12-16T06:57:26.112Z,35.30
2018-12-16T06:59:54.846Z,36.10
2018-12-16T07:02:24.622Z,32.83
2018-12-16T07:04:53.395Z,32.07
2018-12-16T07:07:22.180Z,39.93
2018-12-16T07:09:50.909Z,42.33
2018-12-16T07:12:19.631Z,36.90
2018-12-16T07:14:48.431Z,35.70
2018-12-16T07:17:17.170Z,35.07
2018-12-16T07:19:45.887Z,33.90
2018-12-16T07:22:14.640Z,36.90
2018-12-16T07:24:43.423Z,36.60
2018-12-16T07:27:12.124Z,35.07
2018-12-16T07:29:40.954Z,40.20
2018-12-16T07:32:09.627Z,34.97
2018-12-16T07:34:38.491Z,36.00
2018-12-16T07:37:08.342Z,38.67
2018-12-16T07:39:37.090Z,39.07
2018-12-16T07:42:05.886Z,39.60
2018-12-16T07:44:34.756Z,37.90
2018-12-16T07:47:03.482Z,36.47
2018-12-16T07:49:32.210Z,35.67
2018-12-16T07:52:00.867Z,37.60
2018-12-16T07:54:29.563Z,34.60
2018-12-16T07:56:58.281Z,37.67
2018-12-16T07:59:27.040Z,39.20
2018-12-16T08:01:55.896Z,38.87
2018-12-16T08:04:24.683Z,36.43
2018-12-16T08:06:53.472Z,34.00
2018-12-16T08:09:22.207Z,38.40
2018-12-16T08:11:50.887Z,35.50
2018-12-16T08:14:19.622Z,37.37
2018-12-16T08:16:48.346Z,39.63
2018-12-16T08:19:17.265Z,42.53
2018-12-16T08:21:46.052Z,40.30
2018-12-16T08:24:14.818Z,39.70
2018-12-16T08:26:43.491Z,38.30
2018-12-16T08:29:12.214Z,38.47
2018-12-16T08:31:40.986Z,44.30
2018-12-16T08:34:09.650Z,37.60
2018-12-16T08:36:38.334Z,36.30
2018-12-16T08:39:07.653Z,40.50
2018-12-16T08:41:38.042Z,37.30
2018-12-16T08:44:06.777Z,37.63
2018-12-16T08:46:35.650Z,37.40
2018-12-16T08:49:04.519Z,34.47
2018-12-16T08:51:33.358Z,36.10
2018-12-16T08:54:02.084Z,36.50
2018-12-16T08:56:30.923Z,33.90
2018-12-16T08:58:59.590Z,32.33
2018-12-16T09:01:29.298Z,31.60
2018-12-16T09:03:58.395Z,33.60
2018-12-16T09:06:27.222Z,35.43
2018-12-16T09:08:56.357Z,31.77
2018-12-16T09:11:25.127Z,31.30
2018-12-16T09:13:53.834Z,32.90
2018-12-16T09:16:22.656Z,30.27
2018-12-16T09:18:51.374Z,29.33
2018-12-16T09:21:20.183Z,33.37
2018-12-16T09:23:48.891Z,35.30
2018-12-16T09:26:17.631Z,30.10
2018-12-16T09:28:46.455Z,31.57
2018-12-16T09:31:15.132Z,29.60
2018-12-16T09:33:43.870Z,32.40
2018-12-16T09:36:12.631Z,31.93
2018-12-16T09:38:41.362Z,29.70
2018-12-16T09:41:10.125Z,30.10
2018-12-16T09:43:38.945Z,29.17
2018-12-16T09:46:07.747Z,32.47
2018-12-16T09:48:36.503Z,29.80
2018-12-16T09:51:05.243Z,28.43
2018-12-16T09:53:33.935Z,30.67
2018-12-16T09:56:02.755Z,32.87
2018-12-16T09:58:31.646Z,27.33
2018-12-16T10:01:00.387Z,27.80
2018-12-16T10:03:29.142Z,28.93
2018-12-16T10:05:57.826Z,26.67
2018-12-16T10:08:26.587Z,27.73
2018-12-16T10:10:55.397Z,27.20
2018-12-16T10:13:24.071Z,26.77
2018-12-16T10:15:52.809Z,27.10
2018-12-16T10:18:21.543Z,34.87
2018-12-16T10:20:50.362Z,30.10
2018-12-16T10:23:19.194Z,27.70
2018-12-16T10:25:47.998Z,31.60
2018-12-16T10:28:16.738Z,29.70
2018-12-16T10:30:45.548Z,26.83
2018-12-16T10:33:14.272Z,26.80
2018-12-16T10:35:42.940Z,28.77
2018-12-16T10:38:11.646Z,26.20
2018-12-16T10:40:40.912Z,24.67
2018-12-16T10:43:09.585Z,28.43
2018-12-16T10:45:38.341Z,25.80
2018-12-16T10:48:07.034Z,27.87
2018-12-16T10:50:36.935Z,27.50
2018-12-16T10:53:05.718Z,26.17
2018-12-16T10:55:34.538Z,25.53
2018-12-16T10:58:03.384Z,25.73
2018-12-16T11:00:37.637Z,24.50
2018-12-16T11:03:06.367Z,25.07
2018-12-16T11:05:35.411Z,25.93
2018-12-16T11:08:04.237Z,30.83
2018-12-16T11:10:33.056Z,29.90
2018-12-16T11:13:02.149Z,26.20
2018-12-16T11:15:30.807Z,29.83
2018-12-16T11:17:59.571Z,28.33
2018-12-16T11:20:28.306Z,24.70
2018-12-16T11:22:57.050Z,27.73
2018-12-16T11:25:25.835Z,27.47
2018-12-16T11:27:54.633Z,25.27
2018-12-16T11:30:23.484Z,28.30
2018-12-16T11:32:52.147Z,28.07
2018-12-16T11:35:20.954Z,27.30
2018-12-16T11:37:49.742Z,24.37
2018-12-16T11:40:18.531Z,26.53
2018-12-16T11:42:47.354Z,27.40
2018-12-16T11:45:16.143Z,30.70
2018-12-16T11:47:45.497Z,24.13
2018-12-16T11:50:14.226Z,27.33
2018-12-16T11:52:43.045Z,27.20
2018-12-16T11:55:12.916Z,25.87
2018-12-16T11:57:42.235Z,27.70
2018-12-16T12:00:11.091Z,28.17
2018-12-16T12:02:40.046Z,24.00
2018-12-16T12:05:10.826Z,27.50
2018-12-16T12:07:39.674Z,27.30
2018-12-16T12:10:08.622Z,30.03
2018-12-16T12:12:37.371Z,26.37
2018-12-16T12:15:06.285Z,27.43
2018-12-16T12:17:35.323Z,32.57
2018-12-16T12:20:04.642Z,28.43
2018-12-16T12:22:33.471Z,28.40
2018-12-16T12:25:02.271Z,28.33
2018-12-16T12:27:32.112Z,27.57
2018-12-16T12:30:00.843Z,30.43
2018-12-16T12:32:29.660Z,29.87
2018-12-16T12:34:58.318Z,39.33
2018-12-16T12:37:27.035Z,27.90
2018-12-16T12:39:55.798Z,32.70
2018-12-16T12:42:24.524Z,29.97
2018-12-16T12:44:53.299Z,25.67
2018-12-16T12:47:22.094Z,29.70
2018-12-16T12:49:50.827Z,25.43
2018-12-16T12:52:19.628Z,29.90
2018-12-16T12:54:48.470Z,26.83
2018-12-16T12:57:17.253Z,29.63
2018-12-16T12:59:46.104Z,29.73
2018-12-16T13:02:14.892Z,33.20
2018-12-16T13:04:43.766Z,31.77
2018-12-16T13:07:12.468Z,27.90
2018-12-16T13:09:41.245Z,29.70
2018-12-16T13:12:10.058Z,30.23
2018-12-16T13:14:38.785Z,32.70
2018-12-16T13:17:07.577Z,27.70
2018-12-16T13:19:36.280Z,28.70
2018-12-16T13:22:05.096Z,30.80
2018-12-16T13:24:33.866Z,26.47
2018-12-16T13:27:02.653Z,26.70
2018-12-16T13:29:31.466Z,30.43
2018-12-16T13:32:00.230Z,28.67
2018-12-16T13:34:29.014Z,31.60
2018-12-16T13:36:57.770Z,28.17
2018-12-16T13:39:26.507Z,28.80
2018-12-16T13:41:55.167Z,30.23
2018-12-16T13:44:23.885Z,27.60
2018-12-16T13:46:52.657Z,28.60
2018-12-16T13:49:21.379Z,23.10
2018-12-16T13:51:50.158Z,32.50
2018-12-16T13:54:18.932Z,30.20
2018-12-16T13:56:47.774Z,31.30
2018-12-16T13:59:16.444Z,30.10
2018-12-16T14:01:45.171Z,28.43
2018-12-16T14:04:13.911Z,32.47
2018-12-16T14:06:42.718Z,36.77
2018-12-16T14:09:11.387Z,32.37
2018-12-16T14:11:40.170Z,36.37
2018-12-16T14:14:08.859Z,38.53
2018-12-16T14:16:37.639Z,34.77
2018-12-16T14:19:06.327Z,34.57
2018-12-16T14:21:35.099Z,31.90
2018-12-16T14:24:03.980Z,29.03
2018-12-16T14:26:32.903Z,37.30
2018-12-16T14:29:01.694Z,29.57
2018-12-16T14:31:30.518Z,28.60
2018-12-16T14:33:59.315Z,27.80
2018-12-16T14:36:28.499Z,31.53
2018-12-16T14:38:57.318Z,34.13
2018-12-16T14:41:26.156Z,30.50
2018-12-16T14:43:54.914Z,31.10
2018-12-16T14:46:23.667Z,33.77
2018-12-16T14:48:52.374Z,33.47
2018-12-16T14:51:21.040Z,34.43
2018-12-16T14:53:49.766Z,36.00
2018-12-16T14:56:19.514Z,33.30
2018-12-16T14:58:48.413Z,34.73
2018-12-16T15:01:17.127Z,36.30
2018-12-16T15:03:45.990Z,32.70
2018-12-16T15:06:14.758Z,36.63
2018-12-16T15:08:43.558Z,30.60
2018-12-16T15:11:12.383Z,31.40
2018-12-16T15:13:41.221Z,36.00
2018-12-16T15:16:10.293Z,29.40
2018-12-16T15:18:39.170Z,34.13
2018-12-16T15:21:07.957Z,32.50
2018-12-16T15:23:36.712Z,34.93
2018-12-16T15:26:05.478Z,30.50
2018-12-16T15:28:34.210Z,45.03
2018-12-16T15:31:03.040Z,34.67
2018-12-16T15:33:31.834Z,34.90
2018-12-16T15:36:00.583Z,33.90
2018-12-16T15:38:29.359Z,35.60
2018-12-16T15:40:58.233Z,32.40
2018-12-16T15:43:26.893Z,34.73
2018-12-16T15:45:55.721Z,34.27
2018-12-16T15:48:24.602Z,32.73
2018-12-16T15:50:53.728Z,34.60
2018-12-16T15:53:22.512Z,36.83
2018-12-16T15:55:51.366Z,32.37
2018-12-16T15:58:20.187Z,33.67
2018-12-16T16:00:48.939Z,36.33
2018-12-16T16:03:17.716Z,30.10
2018-12-16T16:05:46.389Z,36.50
2018-12-16T16:08:16.638Z,34.23
2018-12-16T16:10:45.546Z,36.60
2018-12-16T16:13:14.352Z,37.20
2018-12-16T16:15:43.149Z,34.77
2018-12-16T16:18:11.953Z,32.90
2018-12-16T16:20:40.656Z,32.80
2018-12-16T16:23:09.414Z,33.10
2018-12-16T16:25:38.179Z,32.33
2018-12-16T16:28:07.009Z,38.30
2018-12-16T16:30:35.758Z,31.23
2018-12-16T16:33:04.725Z,37.70
2018-12-16T16:35:33.443Z,30.83
2018-12-16T16:38:02.445Z,32.30
2018-12-16T16:40:31.598Z,33.80
2018-12-16T16:43:00.429Z,33.90
2018-12-16T16:45:29.246Z,36.03
2018-12-16T16:47:57.933Z,34.10
2018-12-16T16:50:26.747Z,34.13
2018-12-16T16:52:55.549Z,34.67
2018-12-16T16:55:24.597Z,39.40
2018-12-16T16:57:53.300Z,34.17
2018-12-16T17:00:22.108Z,34.90
2018-12-16T17:02:50.906Z,34.10
2018-12-16T17:05:19.817Z,31.87
2018-12-16T17:07:48.571Z,34.30
2018-12-16T17:10:17.416Z,35.20
2018-12-16T17:12:47.155Z,36.87
2018-12-16T17:15:15.943Z,31.00
2018-12-16T17:17:44.664Z,38.87
2018-12-16T17:20:13.482Z,32.80
2018-12-16T17:22:42.263Z,31.00
2018-12-16T17:25:11.071Z,33.90
2018-12-16T17:27:39.887Z,30.50
2018-12-16T17:30:10.191Z,31.63
2018-12-16T17:32:39.018Z,33.67
2018-12-16T17:35:07.798Z,34.43
2018-12-16T17:37:36.637Z,32.70
2018-12-16T17:40:05.970Z,32.00
2018-12-16T17:42:34.829Z,30.77
2018-12-16T17:45:03.649Z,35.53
2018-12-16T17:47:32.527Z,30.57
2018-12-16T17:50:01.297Z,36.70
2018-12-16T17:52:30.782Z,33.20
2018-12-16T17:54:59.518Z,35.70
2018-12-16T17:57:28.397Z,33.90
2018-12-16T17:59:57.186Z,34.50
2018-12-16T18:02:25.948Z,37.13
2018-12-16T18:04:54.834Z,35.93
2018-12-16T18:07:23.675Z,40.73
2018-12-16T18:09:52.357Z,33.43
2018-12-16T18:12:21.185Z,35.03
2018-12-16T18:14:49.988Z,34.87
2018-12-16T18:17:18.850Z,37.40
2018-12-16T18:19:47.586Z,33.80
2018-12-16T18:22:16.300Z,37.50
2018-12-16T18:24:45.077Z,38.60
2018-12-16T18:27:13.797Z,46.70
2018-12-16T18:29:42.550Z,38.50
2018-12-16T18:32:11.295Z,41.20
2018-12-16T18:34:40.060Z,35.30
2018-12-16T18:37:08.883Z,35.13
2018-12-16T18:39:37.708Z,33.47
2018-12-16T18:42:06.555Z,34.23
2018-12-16T18:44:35.211Z,37.27
2018-12-16T18:47:04.014Z,37.30
2018-12-16T18:49:32.751Z,35.93
2018-12-16T18:52:01.564Z,33.70
2018-12-16T18:54:30.352Z,33.97
2018-12-16T18:56:59.069Z,32.53
2018-12-16T18:59:27.819Z,33.50
2018-12-16T19:01:56.608Z,36.67
2018-12-16T19:04:25.328Z,37.03
2018-12-16T19:06:54.081Z,35.90
2018-12-16T19:09:22.850Z,37.73
2018-12-16T19:11:51.570Z,36.20
2018-12-16T19:14:20.411Z,37.90
2018-12-16T19:16:49.214Z,35.20
2018-12-16T19:19:17.986Z,43.53
2018-12-16T19:21:46.762Z,34.67
2018-12-16T19:24:15.597Z,37.57
2018-12-16T19:26:44.330Z,38.67
2018-12-16T19:29:13.106Z,35.93
2018-12-16T19:31:42.020Z,35.00
2018-12-16T19:34:10.848Z,31.37
2018-12-16T19:36:39.740Z,34.43
2018-12-16T19:39:08.622Z,36.67
2018-12-16T19:41:39.366Z,32.50
2018-12-16T19:44:09.636Z,32.83
2018-12-16T19:46:38.651Z,37.00
2018-12-16T19:49:07.483Z,35.60
2018-12-16T19:51:36.295Z,36.43
2018-12-16T19:54:05.072Z,35.80
2018-12-16T19:56:33.877Z,35.67
2018-12-16T19:59:02.591Z,35.40
2018-12-16T20:01:31.297Z,34.73
2018-12-16T20:04:05.578Z,36.50
2018-12-16T20:06:39.844Z,33.30
2018-12-16T20:09:08.702Z,36.83
2018-12-16T20:11:39.451Z,35.60
2018-12-16T20:14:08.251Z,36.93
2018-12-16T20:16:40.876Z,38.60
2018-12-16T20:19:09.737Z,38.27
2018-12-16T20:21:38.570Z,38.83
2018-12-16T20:24:07.328Z,38.07
2018-12-16T20:26:36.183Z,37.53
2018-12-16T20:29:05.006Z,40.20
2018-12-16T20:31:34.166Z,38.80
2018-12-16T20:34:02.974Z,38.50
2018-12-16T20:36:31.740Z,37.87
2018-12-16T20:39:00.550Z,38.87
2018-12-16T20:41:29.650Z,37.77
2018-12-16T20:43:58.340Z,39.40
2018-12-16T20:46:27.623Z,41.60
2018-12-16T20:48:56.291Z,38.90
2018-12-16T20:51:25.034Z,47.17
2018-12-16T20:53:53.839Z,37.73
2018-12-16T20:56:22.512Z,39.33
2018-12-16T20:58:51.357Z,39.10
2018-12-16T21:01:20.091Z,37.97
2018-12-16T21:03:48.872Z,37.67
2018-12-16T21:06:17.646Z,35.67
2018-12-16T21:08:46.432Z,40.00
2018-12-16T21:11:20.686Z,40.63
2018-12-16T21:13:54.779Z,39.00
2018-12-16T21:17:30.479Z,41.60
2018-12-16T21:19:59.415Z,49.00
2018-12-16T21:22:28.231Z,38.93
2018-12-16T21:24:57.004Z,41.73
2018-12-16T21:27:26.215Z,36.87
2018-12-16T21:29:56.045Z,36.47
2018-12-16T21:32:24.831Z,38.97
2018-12-16T21:34:53.579Z,40.17
2018-12-16T21:37:22.307Z,43.23
2018-12-16T21:39:51.158Z,37.20
2018-12-16T21:42:19.928Z,39.27
2018-12-16T21:44:48.715Z,36.13
2018-12-16T21:47:17.454Z,33.40
2018-12-16T21:49:46.190Z,36.43
2018-12-16T21:52:14.954Z,37.40
2018-12-16T21:54:43.713Z,39.53
2018-12-16T21:57:12.371Z,35.70
2018-12-16T21:59:41.358Z,39.37
2018-12-16T22:02:10.102Z,37.20
2018-12-16T22:04:38.823Z,39.80
2018-12-16T22:07:07.597Z,38.97
2018-12-16T22:09:36.253Z,38.37
2018-12-16T22:12:05.038Z,39.57
2018-12-16T22:14:33.775Z,43.10
2018-12-16T22:17:02.570Z,39.93
2018-12-16T22:19:31.365Z,35.07
2018-12-16T22:22:00.755Z,35.37
2018-12-16T22:24:29.453Z,39.70
2018-12-16T22:26:58.150Z,34.90
2018-12-16T22:29:26.883Z,40.20
2018-12-16T22:31:55.671Z,40.20
2018-12-16T22:34:24.411Z,37.70
2018-12-16T22:36:53.194Z,43.20
2018-12-16T22:39:21.897Z,41.13
2018-12-16T22:41:50.615Z,36.87
2018-12-16T22:44:19.286Z,36.00
2018-12-16T22:46:48.030Z,35.70
2018-12-16T22:49:16.767Z,36.30
2018-12-16T22:51:45.563Z,37.27
2018-12-16T22:54:14.359Z,38.70
2018-12-16T22:56:43.143Z,40.73
2018-12-16T22:59:12.994Z,37.33
2018-12-16T23:01:41.711Z,37.10
2018-12-16T23:04:10.583Z,47.03
2018-12-16T23:06:39.503Z,37.83
2018-12-16T23:09:08.255Z,36.87
2018-12-16T23:11:39.043Z,36.37
2018-12-16T23:14:07.839Z,36.07
2018-12-16T23:16:36.663Z,38.60
2018-12-16T23:19:05.458Z,37.90
2018-12-16T23:21:34.267Z,34.67
2018-12-16T23:24:03.002Z,38.90
2018-12-16T23:26:31.831Z,35.30
2018-12-16T23:29:00.478Z,36.90
2018-12-16T23:31:29.208Z,40.73
2018-12-16T23:33:57.983Z,37.57
2018-12-16T23:36:26.830Z,38.77
2018-12-16T23:38:55.638Z,37.73
2018-12-16T23:41:24.350Z,39.90
2018-12-16T23:43:52.998Z,39.80
2018-12-16T23:46:21.674Z,38.63
2018-12-16T23:48:50.438Z,39.00
2018-12-16T23:51:19.151Z,35.20
2018-12-16T23:53:47.839Z,33.97
2018-12-16T23:56:16.546Z,41.37
2018-12-16T23:58:45.276Z,39.17
